This is the latest recevied weather packets stored in our database for station/object NN5DX-12. If no packets are shown the sender has not sent any weather packets the latest 10 day(s).
| Time | Temp. | Humidity | Pressure | Rain* | Wind** | Luminosity | Snow |
|---|---|---|---|---|---|---|---|
| 1778107216 | -0.56° C | 86% | 1019.4 hPa | 0.51 mm | - | - | - |
| 1778106916 | -0.56° C | 87% | 1019.5 hPa | 0.51 mm | - | - | - |
| 1778106616 | -0.56° C | 86% | 1019.5 hPa | 0.51 mm | - | - | - |
| 1778106316 | 0° C | 87% | 1019.5 hPa | 0.25 mm | - | - | - |
| 1778106016 | -0.56° C | 86% | 1019.6 hPa | 0.25 mm | - | - | - |
| 1778105716 | -0.56° C | 85% | 1019.5 hPa | 0.25 mm | - | - | - |
| 1778105416 | -0.56° C | 85% | 1019.5 hPa | 0.25 mm | - | - | - |
| 1778105116 | -0.56° C | 85% | 1019.5 hPa | 0.25 mm | - | - | - |
| 1778104816 | -0.56° C | 84% | 1019.6 hPa | 0.25 mm | - | - | - |
| 1778104516 | -0.56° C | 84% | 1019.7 hPa | 0.25 mm | - | - | - |
| 1778104216 | -0.56° C | 84% | 1019.7 hPa | 0.25 mm | - | - | - |
| 1778103916 | -0.56° C | 83% | 1019.7 hPa | 0.25 mm | - | - | - |
| 1778103616 | -0.56° C | 83% | 1019.8 hPa | 0 mm | - | - | - |
| 1778103316 | -0.56° C | 83% | 1019.7 hPa | 0 mm | - | - | - |
| 1778103016 | -0.56° C | 83% | 1019.8 hPa | 0 mm | - | - | - |
| 1778102716 | -0.56° C | 83% | 1019.8 hPa | 0 mm | - | - | - |
| 1778102416 | -0.56° C | 85% | 1019.8 hPa | 0 mm | - | - | - |
| 1778102116 | -1.11° C | 84% | 1019.8 hPa | 0 mm | - | - | - |
| 1778101816 | -1.11° C | 83% | 1019.9 hPa | 0 mm | - | - | - |
| 1778101516 | -1.11° C | 84% | 1019.9 hPa | 0 mm | - | - | - |
| 1778101216 | -1.11° C | 84% | 1019.9 hPa | 0 mm | - | - | - |
| 1778100916 | -1.11° C | 83% | 1019.9 hPa | 0 mm | - | - | - |
| 1778100616 | -1.11° C | 82% | 1020 hPa | 0 mm | - | - | - |
| 1778100316 | -0.56° C | 80% | 1020.2 hPa | 0 mm | - | - | - |
| 1778100016 | 0° C | 84% | 1020.9 hPa | 0 mm | - | - | - |
* Rain latest hour (hover to see other rain measurements)
** Current wind speed in m/s (hover to see current wind gust speed)